Nearby METAR Reports

 

KSJC - San Jose, California, USA
Distance from station: NE 9mi, 14km
Updated: Sun, 09-Dec-2018 7:53pm PST
Mostly cloudy
Mostly cloudy
 Wind from calm
Wind: Calm
Temperature: 52°F , 11°C
Dew Point: 46°F , 8°C
Humidity: 82%
Barometer: 30.27 inHg , 1025.1 hPa
Clouds: Mostly cloudy
Visibility: 7 miles , 11 km
Cloud details: Few Clouds 500 ft
Few Clouds 1200 ft
Mostly cloudy 17000 ft
2018/12/10 03:53 KSJC 100353Z 00000KT 7SM FEW005 FEW012 BKN170 11/08 A3027 RMK AO2 SLP249 T01060078
KNUQ - Moffett Nas/Mtn, California, USA
Distance from station: N 9mi, 14km
Updated: Sun, 09-Dec-2018 7:56pm PST
Clear
Clear
 Wind from calm
Wind: Calm
Temperature: 48°F , 9°C
Dew Point: 46°F , 8°C
Humidity: 94%
Barometer: 30.28 inHg , 1025.4 hPa
Clouds: Clear
Visibility: 7 miles , 11 km
2018/12/10 03:56 KNUQ 100356Z 00000KT 7SM CLR 09/08 A3028 RMK AO2 SLP254 T00940078 $
 
KPAO - Palo Alto, California, USA
Distance from station: NNW 14mi, 23km
Updated: Sun, 09-Dec-2018 7:47pm PST
Mostly cloudy
Mostly cloudy
 Wind from NE
Wind: NE 7 mph , 11 km/h
Temperature: 50°F , 10°C
Wind Chill: 47°F , 8°C
Dew Point: 46°F , 8°C
Humidity: 88%
Barometer: 30.28 inHg , 1025.4 hPa
Clouds: Mostly cloudy
Visibility: 10 miles , 16 km
Cloud details: Mostly cloudy 20000 ft
2018/12/10 03:47 KPAO 100347Z 04006KT 10SM BKN200 10/08 A3028
KRHV - San Jose/Reid, California, USA
Distance from station: ENE 12mi, 19km
Updated: Sun, 09-Dec-2018 7:55pm PST
Partly cloudy
Partly cloudy
 Wind from varies
Wind: varies 5 mph , 7 km/h
Temperature: 50°F , 10°C
Wind Chill: 48°F , 9°C
Dew Point: 46°F , 8°C
Humidity: 88%
Barometer: 30.25 inHg , 1024.4 hPa
Clouds: Partly cloudy
Visibility: 10 miles , 16 km
Cloud details: Partly cloudy 10000 ft
2018/12/10 03:55 KRHV 100355Z VRB04KT 10SM SCT100 10/08 A3025
 
KOAK - Oakland, California, USA
Distance from station: NNW 31mi, 50km
Updated: Sun, 09-Dec-2018 7:53pm PST
Partly cloudy
Partly cloudy
 Wind from E
Wind: E 7 mph , 11 km/h
Temperature: 48°F , 9°C
Wind Chill: 45°F , 7°C
Dew Point: 45°F , 7°C
Humidity: 87%
Barometer: 30.27 inHg , 1025.1 hPa
Clouds: Partly cloudy
Visibility: 7 miles , 11 km
Cloud details: Partly cloudy 16000 ft
2018/12/10 03:53 KOAK 100353Z 08006KT 7SM SCT160 09/07 A3027 RMK AO2 SLP251 T00890072
KSQL - San Carlos Airpo, California, USA
Distance from station: NW 21mi, 34km
Updated: Sun, 09-Dec-2018 7:56pm PST
Haze, Mostly cloudy
Haze, Mostly cloudy
 Wind from calm
Wind: Calm
Temperature: 50°F , 10°C
Dew Point: 46°F , 8°C
Humidity: 88%
Barometer: 30.27 inHg , 1025.1 hPa
Summary: Haze
Clouds: Mostly cloudy
Visibility: 6 miles , 10 km
Cloud details: Mostly cloudy 15000 ft
2018/12/10 03:56 KSQL 100356Z 00000KT 6SM HZ BKN150 10/08 A3027
 
KSFO - San Francisco, California, USA
Distance from station: NW 30mi, 49km
Updated: Sun, 09-Dec-2018 7:56pm PST
Partly cloudy
Partly cloudy
 Wind from ENE
Wind: ENE 7 mph , 11 km/h
Temperature: 50°F , 10°C
Wind Chill: 47°F , 8°C
Dew Point: 46°F , 8°C
Humidity: 88%
Barometer: 30.26 inHg , 1024.7 hPa
Clouds: Partly cloudy
Visibility: 9 miles , 14 km
Cloud details: Few Clouds 2000 ft
Partly cloudy 15000 ft
2018/12/10 03:56 KSFO 100356Z 07006KT 9SM FEW020 SCT150 10/08 A3026 RMK AO2 SLP247 T01000078
KE16 - San Martin, California, USA
Distance from station: ESE 27mi, 43km
Updated: Sun, 09-Dec-2018 8:10pm PST
Partly cloudy
Partly cloudy
 Wind from NW
Wind: NW 3 mph , 6 km/h
Temperature: 48°F , 9°C
Dew Point: 46°F , 8°C
Humidity: 94%
Barometer: 30.28 inHg , 1025.4 hPa
Clouds: Partly cloudy
Visibility: 8 miles , 13 km
Cloud details: Few Clouds 1700 ft
Partly cloudy 2300 ft
Partly cloudy 12000 ft
2018/12/10 04:10 KE16 100410Z AUTO 31003KT 8SM FEW017 SCT023 SCT120 09/08 A3028 RMK AO2
 
KWVI - Watsonville, California, USA
Distance from station: SSE 27mi, 44km
Updated: Sun, 09-Dec-2018 7:53pm PST
Clear
Clear
 Wind from NNW
Wind: NNW 3 mph , 6 km/h
Temperature: 52°F , 11°C
Dew Point: 46°F , 8°C
Humidity: 82%
Barometer: 30.25 inHg , 1024.4 hPa
Clouds: Clear
Visibility: 10 miles , 16 km
2018/12/10 03:53 KWVI 100353Z AUTO 34003KT 10SM CLR 11/08 A3025 RMK AO2 SLP244 T01060078
KHAF - Half Moon Bay, California, USA
Distance from station: WNW 31mi, 50km
Updated: Sun, 09-Dec-2018 8:20pm PST
Clear
Clear
 Wind from calm
Wind: Calm
Temperature: 46°F , 8°C
Dew Point: 43°F , 6°C
Humidity: 87%
Barometer: 30.25 inHg , 1024.4 hPa
Clouds: Clear
Visibility: 10 miles , 16 km
2018/12/10 04:20 KHAF 100420Z AUTO 00000KT 10SM CLR 08/06 A3025 RMK AO2
 
KHWD - Hayward, California, USA
Distance from station: N 28mi, 44km
Updated: Sun, 09-Dec-2018 7:54pm PST
Haze, Clear
Haze, Clear
 Wind from NE
Wind: NE 6 mph , 9 km/h
Temperature: 50°F , 10°C
Wind Chill: 48°F , 9°C
Dew Point: 45°F , 7°C
Humidity: 82%
Barometer: 30.27 inHg , 1025.1 hPa
Summary: Haze
Clouds: Clear
Visibility: 6 miles , 10 km
2018/12/10 03:54 KHWD 100354Z 05005KT 6SM HZ CLR 10/07 A3027 RMK AO2 SLP258 T01000067
KLVK - Livermore, California, USA
Distance from station: NNE 31mi, 51km
Updated: Sun, 09-Dec-2018 7:53pm PST
Mist, Overcast
Mist, Overcast
 Wind from NE
Wind: NE 3 mph , 6 km/h
Temperature: 46°F , 8°C
Dew Point: 45°F , 7°C
Humidity: 93%
Barometer: 30.27 inHg , 1025.1 hPa
Summary: Mist
Clouds: Overcast
Visibility: 3 miles , 5 km
Cloud details: Overcast 700 ft
2018/12/10 03:53 KLVK 100353Z 04003KT 3SM BR OVC007 08/07 A3027 RMK AO2 SLP251 T00830067